sensor_id;sensor_type;location;lat;lon;timestamp;pressure;altitude;pressure_sealevel;temperature
35960;BMP280;22043;50.970;7.192;2023-04-03T00:01:29;100394.13;;;4.46
35960;BMP280;22043;50.970;7.192;2023-04-03T00:03:55;100393.59;;;4.52
35960;BMP280;22043;50.970;7.192;2023-04-03T00:06:21;100392.94;;;4.55
35960;BMP280;22043;50.970;7.192;2023-04-03T00:08:47;100391.34;;;4.54
35960;BMP280;22043;50.970;7.192;2023-04-03T00:11:13;100390.91;;;4.52
35960;BMP280;22043;50.970;7.192;2023-04-03T00:13:39;100389.75;;;4.53
35960;BMP280;22043;50.970;7.192;2023-04-03T00:16:05;100389.44;;;4.55
35960;BMP280;22043;50.970;7.192;2023-04-03T00:18:31;100400.78;;;4.60
35960;BMP280;22043;50.970;7.192;2023-04-03T00:20:57;100404.41;;;4.65
35960;BMP280;22043;50.970;7.192;2023-04-03T00:23:22;100404.28;;;4.61
35960;BMP280;22043;50.970;7.192;2023-04-03T00:25:49;100399.25;;;4.72
35960;BMP280;22043;50.970;7.192;2023-04-03T00:28:15;100403.84;;;4.71
35960;BMP280;22043;50.970;7.192;2023-04-03T00:30:41;100403.28;;;4.78
35960;BMP280;22043;50.970;7.192;2023-04-03T00:33:06;100399.91;;;4.69
35960;BMP280;22043;50.970;7.192;2023-04-03T00:35:32;100396.44;;;4.80
35960;BMP280;22043;50.970;7.192;2023-04-03T00:37:58;100398.34;;;4.92
35960;BMP280;22043;50.970;7.192;2023-04-03T00:40:26;100402.66;;;4.93
35960;BMP280;22043;50.970;7.192;2023-04-03T00:42:56;100398.34;;;4.92
35960;BMP280;22043;50.970;7.192;2023-04-03T00:45:32;100397.91;;;4.90
35960;BMP280;22043;50.970;7.192;2023-04-03T00:47:59;100394.19;;;4.95
35960;BMP280;22043;50.970;7.192;2023-04-03T00:50:27;100395.19;;;5.02
35960;BMP280;22043;50.970;7.192;2023-04-03T00:52:53;100385.53;;;5.01
35960;BMP280;22043;50.970;7.192;2023-04-03T00:55:19;100385.72;;;4.96
35960;BMP280;22043;50.970;7.192;2023-04-03T00:57:46;100391.03;;;4.93
35960;BMP280;22043;50.970;7.192;2023-04-03T01:00:18;100391.91;;;4.97
35960;BMP280;22043;50.970;7.192;2023-04-03T01:02:46;100380.13;;;4.89
35960;BMP280;22043;50.970;7.192;2023-04-03T01:05:15;100379.44;;;4.92
35960;BMP280;22043;50.970;7.192;2023-04-03T01:07:42;100379.66;;;4.87
35960;BMP280;22043;50.970;7.192;2023-04-03T01:10:11;100382.94;;;4.80
35960;BMP280;22043;50.970;7.192;2023-04-03T01:12:41;100382.72;;;4.85
35960;BMP280;22043;50.970;7.192;2023-04-03T01:15:11;100377.41;;;4.77
35960;BMP280;22043;50.970;7.192;2023-04-03T01:17:38;100389.25;;;4.72
35960;BMP280;22043;50.970;7.192;2023-04-03T01:25:48;100381.53;;;4.62
35960;BMP280;22043;50.970;7.192;2023-04-03T01:28:32;100379.50;;;4.59
35960;BMP280;22043;50.970;7.192;2023-04-03T01:33:41;100384.13;;;4.58
35960;BMP280;22043;50.970;7.192;2023-04-03T01:36:07;100373.91;;;4.52
35960;BMP280;22043;50.970;7.192;2023-04-03T01:38:33;100382.53;;;4.45
35960;BMP280;22043;50.970;7.192;2023-04-03T01:40:59;100377.72;;;4.39
35960;BMP280;22043;50.970;7.192;2023-04-03T01:43:25;100380.94;;;4.32
35960;BMP280;22043;50.970;7.192;2023-04-03T01:45:50;100390.06;;;4.40
35960;BMP280;22043;50.970;7.192;2023-04-03T01:48:17;100390.44;;;4.38
35960;BMP280;22043;50.970;7.192;2023-04-03T01:50:43;100387.38;;;4.40
35960;BMP280;22043;50.970;7.192;2023-04-03T01:53:08;100382.22;;;4.34
35960;BMP280;22043;50.970;7.192;2023-04-03T01:55:34;100388.41;;;4.35
35960;BMP280;22043;50.970;7.192;2023-04-03T01:57:59;100391.53;;;4.37
35960;BMP280;22043;50.970;7.192;2023-04-03T02:00:25;100391.09;;;4.35
35960;BMP280;22043;50.970;7.192;2023-04-03T02:02:52;100387.59;;;4.34
35960;BMP280;22043;50.970;7.192;2023-04-03T02:05:17;100384.00;;;4.30
35960;BMP280;22043;50.970;7.192;2023-04-03T02:07:43;100382.72;;;4.28
35960;BMP280;22043;50.970;7.192;2023-04-03T02:10:09;100380.25;;;4.23
35960;BMP280;22043;50.970;7.192;2023-04-03T02:12:34;100384.72;;;4.19
35960;BMP280;22043;50.970;7.192;2023-04-03T02:15:00;100380.25;;;4.23
35960;BMP280;22043;50.970;7.192;2023-04-03T02:17:26;100379.31;;;4.19
35960;BMP280;22043;50.970;7.192;2023-04-03T02:19:53;100381.34;;;4.09
35960;BMP280;22043;50.970;7.192;2023-04-03T02:22:19;100387.19;;;4.12
35960;BMP280;22043;50.970;7.192;2023-04-03T02:24:45;100383.19;;;4.18
35960;BMP280;22043;50.970;7.192;2023-04-03T02:27:10;100384.63;;;4.15
35960;BMP280;22043;50.970;7.192;2023-04-03T02:29:36;100384.03;;;4.09
35960;BMP280;22043;50.970;7.192;2023-04-03T02:32:01;100392.66;;;4.03
35960;BMP280;22043;50.970;7.192;2023-04-03T02:34:28;100387.47;;;3.98
35960;BMP280;22043;50.970;7.192;2023-04-03T02:36:57;100390.28;;;4.01
35960;BMP280;22043;50.970;7.192;2023-04-03T02:39:23;100392.50;;;3.99
35960;BMP280;22043;50.970;7.192;2023-04-03T02:41:49;100399.50;;;4.00
35960;BMP280;22043;50.970;7.192;2023-04-03T02:44:20;100393.88;;;3.93
35960;BMP280;22043;50.970;7.192;2023-04-03T02:46:45;100399.47;;;3.88
35960;BMP280;22043;50.970;7.192;2023-04-03T02:49:11;100396.16;;;3.82
35960;BMP280;22043;50.970;7.192;2023-04-03T02:51:36;100393.88;;;3.72
35960;BMP280;22043;50.970;7.192;2023-04-03T02:54:02;100400.16;;;3.76
35960;BMP280;22043;50.970;7.192;2023-04-03T02:56:30;100401.19;;;3.72
35960;BMP280;22043;50.970;7.192;2023-04-03T02:58:56;100404.88;;;3.67
35960;BMP280;22043;50.970;7.192;2023-04-03T03:01:22;100404.25;;;3.62
35960;BMP280;22043;50.970;7.192;2023-04-03T03:03:47;100405.50;;;3.64
35960;BMP280;22043;50.970;7.192;2023-04-03T03:06:15;100403.47;;;3.61
35960;BMP280;22043;50.970;7.192;2023-04-03T03:08:41;100406.31;;;3.65
35960;BMP280;22043;50.970;7.192;2023-04-03T03:11:07;100391.91;;;3.61
35960;BMP280;22043;50.970;7.192;2023-04-03T03:13:33;100399.53;;;3.58
35960;BMP280;22043;50.970;7.192;2023-04-03T03:15:58;100394.94;;;3.59
35960;BMP280;22043;50.970;7.192;2023-04-03T03:18:24;100399.53;;;3.58
35960;BMP280;22043;50.970;7.192;2023-04-03T03:20:54;100400.47;;;3.63
35960;BMP280;22043;50.970;7.192;2023-04-03T03:23:21;100398.53;;;3.63
35960;BMP280;22043;50.970;7.192;2023-04-03T03:25:47;100403.47;;;3.61
35960;BMP280;22043;50.970;7.192;2023-04-03T03:28:12;100397.34;;;3.52
35960;BMP280;22043;50.970;7.192;2023-04-03T03:30:38;100403.19;;;3.33
35960;BMP280;22043;50.970;7.192;2023-04-03T03:33:03;100404.91;;;3.38
35960;BMP280;22043;50.970;7.192;2023-04-03T03:35:29;100402.06;;;3.34
35960;BMP280;22043;50.970;7.192;2023-04-03T03:37:54;100406.03;;;3.28
35960;BMP280;22043;50.970;7.192;2023-04-03T03:40:20;100410.00;;;3.30
35960;BMP280;22043;50.970;7.192;2023-04-03T03:42:46;100409.63;;;3.41
35960;BMP280;22043;50.970;7.192;2023-04-03T03:45:11;100412.31;;;3.41
35960;BMP280;22043;50.970;7.192;2023-04-03T03:47:37;100406.63;;;3.42
35960;BMP280;22043;50.970;7.192;2023-04-03T03:50:03;100398.38;;;3.39
35960;BMP280;22043;50.970;7.192;2023-04-03T03:52:28;100404.84;;;3.46
35960;BMP280;22043;50.970;7.192;2023-04-03T03:54:55;100394.88;;;3.47
35960;BMP280;22043;50.970;7.192;2023-04-03T03:57:21;100400.38;;;3.50
35960;BMP280;22043;50.970;7.192;2023-04-03T03:59:46;100399.91;;;3.48
35960;BMP280;22043;50.970;7.192;2023-04-03T04:02:15;100401.16;;;3.51
35960;BMP280;22043;50.970;7.192;2023-04-03T04:04:41;100400.09;;;3.43
35960;BMP280;22043;50.970;7.192;2023-04-03T04:07:07;100407.25;;;3.39
35960;BMP280;22043;50.970;7.192;2023-04-03T04:09:33;100410.69;;;3.48
35960;BMP280;22043;50.970;7.192;2023-04-03T04:11:58;100401.03;;;3.47
35960;BMP280;22043;50.970;7.192;2023-04-03T04:14:24;100399.50;;;3.38
35960;BMP280;22043;50.970;7.192;2023-04-03T04:16:50;100407.25;;;3.39
35960;BMP280;22043;50.970;7.192;2023-04-03T04:19:21;100409.16;;;3.39
35960;BMP280;22043;50.970;7.192;2023-04-03T04:21:47;100408.09;;;3.31
35960;BMP280;22043;50.970;7.192;2023-04-03T04:24:12;100411.56;;;3.31
35960;BMP280;22043;50.970;7.192;2023-04-03T04:26:38;100410.78;;;3.31
35960;BMP280;22043;50.970;7.192;2023-04-03T04:29:06;100415.91;;;3.24
35960;BMP280;22043;50.970;7.192;2023-04-03T04:31:34;100410.97;;;3.26
35960;BMP280;22043;50.970;7.192;2023-04-03T04:33:59;100417.94;;;3.27
35960;BMP280;22043;50.970;7.192;2023-04-03T04:36:25;100421.28;;;3.24
35960;BMP280;22043;50.970;7.192;2023-04-03T04:38:51;100426.28;;;3.13
35960;BMP280;22043;50.970;7.192;2023-04-03T04:41:20;100422.59;;;3.18
35960;BMP280;22043;50.970;7.192;2023-04-03T04:43:51;100420.72;;;3.10
35960;BMP280;22043;50.970;7.192;2023-04-03T04:46:17;100423.31;;;2.97
35960;BMP280;22043;50.970;7.192;2023-04-03T04:48:47;100426.31;;;2.96
35960;BMP280;22043;50.970;7.192;2023-04-03T04:51:14;100428.22;;;3.04
35960;BMP280;22043;50.970;7.192;2023-04-03T04:53:41;100432.00;;;3.03
35960;BMP280;22043;50.970;7.192;2023-04-03T04:56:08;100436.44;;;3.08
35960;BMP280;22043;50.970;7.192;2023-04-03T04:58:36;100438.31;;;3.07
35960;BMP280;22043;50.970;7.192;2023-04-03T05:01:04;100448.31;;;3.06
35960;BMP280;22043;50.970;7.192;2023-04-03T05:03:31;100441.53;;;3.00
35960;BMP280;22043;50.970;7.192;2023-04-03T05:06:00;100442.34;;;2.92
35960;BMP280;22043;50.970;7.192;2023-04-03T05:08:27;100453.53;;;3.03
35960;BMP280;22043;50.970;7.192;2023-04-03T05:10:53;100448.31;;;3.06
35960;BMP280;22043;50.970;7.192;2023-04-03T05:13:19;100452.13;;;3.05
35960;BMP280;22043;50.970;7.192;2023-04-03T05:15:46;100452.13;;;3.05
35960;BMP280;22043;50.970;7.192;2023-04-03T05:18:12;100455.94;;;3.04
35960;BMP280;22043;50.970;7.192;2023-04-03T05:20:38;100455.28;;;2.99
35960;BMP280;22043;50.970;7.192;2023-04-03T05:23:04;100447.34;;;3.02
35960;BMP280;22043;50.970;7.192;2023-04-03T05:25:32;100462.41;;;3.12
35960;BMP280;22043;50.970;7.192;2023-04-03T05:27:58;100457.97;;;3.08
35960;BMP280;22043;50.970;7.192;2023-04-03T05:30:24;100463.66;;;3.15
35960;BMP280;22043;50.970;7.192;2023-04-03T05:32:49;100463.19;;;3.13
35960;BMP280;22043;50.970;7.192;2023-04-03T05:35:18;100463.38;;;3.08
35960;BMP280;22043;50.970;7.192;2023-04-03T05:37:46;100463.66;;;3.15
35960;BMP280;22043;50.970;7.192;2023-04-03T05:40:13;100471.28;;;3.13
35960;BMP280;22043;50.970;7.192;2023-04-03T05:42:42;100469.66;;;3.12
35960;BMP280;22043;50.970;7.192;2023-04-03T05:45:07;100471.53;;;3.20
35960;BMP280;22043;50.970;7.192;2023-04-03T05:47:33;100474.72;;;3.22
35960;BMP280;22043;50.970;7.192;2023-04-03T05:49:58;100481.22;;;3.21
35960;BMP280;22043;50.970;7.192;2023-04-03T05:52:29;100483.25;;;3.24
35960;BMP280;22043;50.970;7.192;2023-04-03T05:54:57;100488.19;;;3.22
35960;BMP280;22043;50.970;7.192;2023-04-03T05:57:25;100478.22;;;3.22
35960;BMP280;22043;50.970;7.192;2023-04-03T05:59:51;100484.66;;;3.30
35960;BMP280;22043;50.970;7.192;2023-04-03T06:02:20;100484.50;;;3.26
35960;BMP280;22043;50.970;7.192;2023-04-03T06:04:47;100484.31;;;3.31
35960;BMP280;22043;50.970;7.192;2023-04-03T06:07:14;100482.72;;;3.39
35960;BMP280;22043;50.970;7.192;2023-04-03T06:09:41;100497.31;;;3.38
35960;BMP280;22043;50.970;7.192;2023-04-03T06:12:07;100497.34;;;3.29
35960;BMP280;22043;50.970;7.192;2023-04-03T06:14:32;100498.28;;;3.34
35960;BMP280;22043;50.970;7.192;2023-04-03T06:17:00;100497.56;;;3.24
35960;BMP280;22043;50.970;7.192;2023-04-03T06:19:27;100498.44;;;3.37
35960;BMP280;22043;50.970;7.192;2023-04-03T06:21:55;100498.72;;;3.36
35960;BMP280;22043;50.970;7.192;2023-04-03T06:24:20;100503.50;;;3.39
35960;BMP280;22043;50.970;7.192;2023-04-03T06:26:48;100504.28;;;3.39
35960;BMP280;22043;50.970;7.192;2023-04-03T06:29:15;100502.53;;;3.43
35960;BMP280;22043;50.970;7.192;2023-04-03T06:31:40;100506.28;;;3.51
35960;BMP280;22043;50.970;7.192;2023-04-03T06:34:06;100496.78;;;3.45
35960;BMP280;22043;50.970;7.192;2023-04-03T06:36:32;100499.63;;;3.48
35960;BMP280;22043;50.970;7.192;2023-04-03T06:38:58;100505.50;;;3.50
35960;BMP280;22043;50.970;7.192;2023-04-03T06:41:23;100495.41;;;3.39
35960;BMP280;22043;50.970;7.192;2023-04-03T06:43:49;100500.94;;;3.42
35960;BMP280;22043;50.970;7.192;2023-04-03T06:46:19;100499.03;;;3.43
35960;BMP280;22043;50.970;7.192;2023-04-03T06:48:45;100502.97;;;3.45
35960;BMP280;22043;50.970;7.192;2023-04-03T06:51:25;100499.91;;;3.55
35960;BMP280;22043;50.970;7.192;2023-04-03T06:53:52;100505.44;;;3.59
35960;BMP280;22043;50.970;7.192;2023-04-03T06:56:18;100506.59;;;3.49
35960;BMP280;22043;50.970;7.192;2023-04-03T06:58:44;100512.53;;;3.34
35960;BMP280;22043;50.970;7.192;2023-04-03T07:01:11;100516.31;;;3.42
35960;BMP280;22043;50.970;7.192;2023-04-03T07:03:37;100517.84;;;3.51
35960;BMP280;22043;50.970;7.192;2023-04-03T07:06:04;100510.34;;;3.57
35960;BMP280;22043;50.970;7.192;2023-04-03T07:08:31;100510.34;;;3.57
35960;BMP280;22043;50.970;7.192;2023-04-03T07:10:57;100511.97;;;3.58
35960;BMP280;22043;50.970;7.192;2023-04-03T07:13:22;100514.94;;;3.65
35960;BMP280;22043;50.970;7.192;2023-04-03T07:15:48;100513.16;;;3.40
35960;BMP280;22043;50.970;7.192;2023-04-03T07:18:14;100522.59;;;3.54
35960;BMP280;22043;50.970;7.192;2023-04-03T07:20:39;100517.31;;;3.67
35960;BMP280;22043;50.970;7.192;2023-04-03T07:23:05;100518.25;;;3.71
35960;BMP280;22043;50.970;7.192;2023-04-03T07:25:31;100522.75;;;3.79
35960;BMP280;22043;50.970;7.192;2023-04-03T07:27:57;100522.75;;;3.79
35960;BMP280;22043;50.970;7.192;2023-04-03T07:30:23;100515.94;;;3.81
35960;BMP280;22043;50.970;7.192;2023-04-03T07:32:48;100526.38;;;3.83
35960;BMP280;22043;50.970;7.192;2023-04-03T07:35:13;100530.34;;;3.86
35960;BMP280;22043;50.970;7.192;2023-04-03T07:37:39;100530.88;;;4.00
35960;BMP280;22043;50.970;7.192;2023-04-03T07:40:05;100532.78;;;3.99
35960;BMP280;22043;50.970;7.192;2023-04-03T07:42:32;100522.84;;;3.91
35960;BMP280;22043;50.970;7.192;2023-04-03T07:44:57;100526.59;;;3.99
35960;BMP280;22043;50.970;7.192;2023-04-03T07:47:23;100524.63;;;4.08
35960;BMP280;22043;50.970;7.192;2023-04-03T07:49:48;100529.97;;;4.17
35960;BMP280;22043;50.970;7.192;2023-04-03T07:52:14;100520.09;;;4.21
35960;BMP280;22043;50.970;7.192;2023-04-03T07:54:41;100521.34;;;4.23
35960;BMP280;22043;50.970;7.192;2023-04-03T07:57:06;100529.72;;;4.30
35960;BMP280;22043;50.970;7.192;2023-04-03T07:59:32;100527.28;;;4.38
35960;BMP280;22043;50.970;7.192;2023-04-03T08:01:57;100533.56;;;4.42
35960;BMP280;22043;50.970;7.192;2023-04-03T08:04:23;100528.19;;;4.42
35960;BMP280;22043;50.970;7.192;2023-04-03T08:06:49;100540.50;;;4.51
35960;BMP280;22043;50.970;7.192;2023-04-03T08:09:15;100533.34;;;4.55
35960;BMP280;22043;50.970;7.192;2023-04-03T08:11:41;100535.69;;;4.57
35960;BMP280;22043;50.970;7.192;2023-04-03T08:14:06;100524.53;;;4.58
35960;BMP280;22043;50.970;7.192;2023-04-03T08:16:32;100526.91;;;4.60
35960;BMP280;22043;50.970;7.192;2023-04-03T08:18:58;100521.66;;;4.63
35960;BMP280;22043;50.970;7.192;2023-04-03T08:21:23;100532.56;;;4.67
35960;BMP280;22043;50.970;7.192;2023-04-03T08:23:49;100535.38;;;4.71
35960;BMP280;22043;50.970;7.192;2023-04-03T08:26:18;100532.59;;;4.79
35960;BMP280;22043;50.970;7.192;2023-04-03T08:28:44;100538.34;;;4.78
35960;BMP280;22043;50.970;7.192;2023-04-03T08:31:12;100540.25;;;4.77
35960;BMP280;22043;50.970;7.192;2023-04-03T08:33:38;100539.47;;;4.77
35960;BMP280;22043;50.970;7.192;2023-04-03T08:36:06;100540.69;;;4.79
35960;BMP280;22043;50.970;7.192;2023-04-03T08:38:31;100534.06;;;4.77
35960;BMP280;22043;50.970;7.192;2023-04-03T08:41:31;100542.09;;;4.85
35960;BMP280;22043;50.970;7.192;2023-04-03T08:44:16;100546.63;;;4.94
35960;BMP280;22043;50.970;7.192;2023-04-03T08:49:40;100549.00;;;5.07
35960;BMP280;22043;50.970;7.192;2023-04-03T08:52:11;100557.91;;;5.08
35960;BMP280;22043;50.970;7.192;2023-04-03T08:54:58;100555.66;;;5.10
35960;BMP280;22043;50.970;7.192;2023-04-03T08:57:34;100562.28;;;5.12
35960;BMP280;22043;50.970;7.192;2023-04-03T09:00:05;100562.97;;;5.09
35960;BMP280;22043;50.970;7.192;2023-04-03T09:02:34;100553.94;;;5.18
35960;BMP280;22043;50.970;7.192;2023-04-03T09:05:05;100548.00;;;5.24
35960;BMP280;22043;50.970;7.192;2023-04-03T09:07:36;100549.72;;;5.29
35960;BMP280;22043;50.970;7.192;2023-04-03T09:10:05;100546.63;;;5.30
35960;BMP280;22043;50.970;7.192;2023-04-03T09:12:38;100543.28;;;5.33
35960;BMP280;22043;50.970;7.192;2023-04-03T09:15:18;100542.13;;;5.34
35960;BMP280;22043;50.970;7.192;2023-04-03T09:22:37;100545.63;;;5.47
35960;BMP280;22043;50.970;7.192;2023-04-03T09:25:07;100545.75;;;5.51
35960;BMP280;22043;50.970;7.192;2023-04-03T09:27:34;100550.94;;;5.56
35960;BMP280;22043;50.970;7.192;2023-04-03T09:29:59;100544.97;;;5.50
35960;BMP280;22043;50.970;7.192;2023-04-03T09:32:31;100545.88;;;5.54
35960;BMP280;22043;50.970;7.192;2023-04-03T09:35:00;100553.06;;;5.62
35960;BMP280;22043;50.970;7.192;2023-04-03T09:37:51;100549.81;;;5.69
35960;BMP280;22043;50.970;7.192;2023-04-03T09:40:32;100546.97;;;5.78
35960;BMP280;22043;50.970;7.192;2023-04-03T09:43:03;100540.56;;;5.82
35960;BMP280;22043;50.970;7.192;2023-04-03T09:45:45;100547.31;;;5.88
35960;BMP280;22043;50.970;7.192;2023-04-03T09:55:55;100540.41;;;6.03
35960;BMP280;22043;50.970;7.192;2023-04-03T09:58:39;100548.19;;;6.05
35960;BMP280;22043;50.970;7.192;2023-04-03T10:01:21;100542.00;;;6.04
35960;BMP280;22043;50.970;7.192;2023-04-03T10:04:03;100543.56;;;6.05
35960;BMP280;22043;50.970;7.192;2023-04-03T10:06:31;100550.75;;;6.13
35960;BMP280;22043;50.970;7.192;2023-04-03T10:09:03;100540.38;;;6.15
35960;BMP280;22043;50.970;7.192;2023-04-03T10:11:29;100534.66;;;6.05
35960;BMP280;22043;50.970;7.192;2023-04-03T10:13:58;100538.59;;;6.07
35960;BMP280;22043;50.970;7.192;2023-04-03T10:16:36;100543.09;;;6.15
35960;BMP280;22043;50.970;7.192;2023-04-03T10:19:28;100539.75;;;6.22
35960;BMP280;22043;50.970;7.192;2023-04-03T10:22:02;100530.19;;;6.25
35960;BMP280;22043;50.970;7.192;2023-04-03T10:24:38;100533.00;;;6.28
35960;BMP280;22043;50.970;7.192;2023-04-03T10:27:13;100533.44;;;6.30
35960;BMP280;22043;50.970;7.192;2023-04-03T10:30:09;100514.94;;;6.32
35960;BMP280;22043;50.970;7.192;2023-04-03T10:32:53;100523.16;;;6.36
35960;BMP280;22043;50.970;7.192;2023-04-03T10:36:17;100518.28;;;6.41
35960;BMP280;22043;50.970;7.192;2023-04-03T10:41:15;100514.63;;;6.49
35960;BMP280;22043;50.970;7.192;2023-04-03T10:46:43;100517.25;;;6.62
35960;BMP280;22043;50.970;7.192;2023-04-03T10:49:25;100519.44;;;6.56
35960;BMP280;22043;50.970;7.192;2023-04-03T10:52:05;100508.78;;;6.63
35960;BMP280;22043;50.970;7.192;2023-04-03T10:54:38;100511.06;;;6.61
35960;BMP280;22043;50.970;7.192;2023-04-03T10:57:08;100508.72;;;6.75
35960;BMP280;22043;50.970;7.192;2023-04-03T10:59:50;100509.00;;;6.70
35960;BMP280;22043;50.970;7.192;2023-04-03T11:02:42;100510.97;;;6.73
35960;BMP280;22043;50.970;7.192;2023-04-03T11:05:36;100504.53;;;6.78
35960;BMP280;22043;50.970;7.192;2023-04-03T11:08:12;100495.38;;;6.83
35960;BMP280;22043;50.970;7.192;2023-04-03T11:10:45;100493.88;;;6.85
35960;BMP280;22043;50.970;7.192;2023-04-03T11:13:16;100501.28;;;6.88
35960;BMP280;22043;50.970;7.192;2023-04-03T11:15:43;100504.88;;;6.92
35960;BMP280;22043;50.970;7.192;2023-04-03T11:21:57;100499.56;;;6.96
35960;BMP280;22043;50.970;7.192;2023-04-03T11:24:26;100493.00;;;6.97
35960;BMP280;22043;50.970;7.192;2023-04-03T11:26:54;100495.72;;;6.97
35960;BMP280;22043;50.970;7.192;2023-04-03T11:29:24;100488.34;;;6.97
35960;BMP280;22043;50.970;7.192;2023-04-03T11:34:36;100486.25;;;7.07
35960;BMP280;22043;50.970;7.192;2023-04-03T11:37:33;100486.59;;;7.05
35960;BMP280;22043;50.970;7.192;2023-04-03T11:40:22;100478.56;;;7.09
35960;BMP280;22043;50.970;7.192;2023-04-03T11:42:53;100468.22;;;7.14
35960;BMP280;22043;50.970;7.192;2023-04-03T11:47:58;100472.25;;;7.20
35960;BMP280;22043;50.970;7.192;2023-04-03T11:58:04;100461.53;;;7.27
35960;BMP280;22043;50.970;7.192;2023-04-03T12:00:51;100456.22;;;7.31
35960;BMP280;22043;50.970;7.192;2023-04-03T12:08:45;100442.00;;;7.38
35960;BMP280;22043;50.970;7.192;2023-04-03T12:13:39;100442.63;;;7.47
35960;BMP280;22043;50.970;7.192;2023-04-03T12:16:06;100438.72;;;7.48
35960;BMP280;22043;50.970;7.192;2023-04-03T12:21:18;100438.03;;;7.51
35960;BMP280;22043;50.970;7.192;2023-04-03T12:31:46;100439.50;;;7.48
35960;BMP280;22043;50.970;7.192;2023-04-03T12:34:26;100430.19;;;7.46
35960;BMP280;22043;50.970;7.192;2023-04-03T12:37:08;100422.53;;;7.51
35960;BMP280;22043;50.970;7.192;2023-04-03T12:39:50;100436.53;;;7.53
35960;BMP280;22043;50.970;7.192;2023-04-03T12:42:21;100435.50;;;7.58
35960;BMP280;22043;50.970;7.192;2023-04-03T12:45:08;100423.78;;;7.54
35960;BMP280;22043;50.970;7.192;2023-04-03T12:47:35;100428.47;;;7.57
35960;BMP280;22043;50.970;7.192;2023-04-03T12:50:04;100422.72;;;7.58
35960;BMP280;22043;50.970;7.192;2023-04-03T12:52:54;100423.06;;;7.57
35960;BMP280;22043;50.970;7.192;2023-04-03T12:55:21;100413.78;;;7.58
35960;BMP280;22043;50.970;7.192;2023-04-03T12:57:47;100416.91;;;7.60
35960;BMP280;22043;50.970;7.192;2023-04-03T13:00:32;100415.84;;;7.65
35960;BMP280;22043;50.970;7.192;2023-04-03T13:03:00;100415.84;;;7.65
35960;BMP280;22043;50.970;7.192;2023-04-03T13:05:27;100404.28;;;7.68
35960;BMP280;22043;50.970;7.192;2023-04-03T13:08:00;100414.03;;;7.72
35960;BMP280;22043;50.970;7.192;2023-04-03T13:10:27;100412.91;;;7.73
35960;BMP280;22043;50.970;7.192;2023-04-03T13:12:54;100399.84;;;7.79
35960;BMP280;22043;50.970;7.192;2023-04-03T13:17:49;100402.59;;;7.82
35960;BMP280;22043;50.970;7.192;2023-04-03T13:20:24;100399.03;;;7.78
35960;BMP280;22043;50.970;7.192;2023-04-03T13:23:00;100394.75;;;7.77
35960;BMP280;22043;50.970;7.192;2023-04-03T13:25:29;100395.69;;;7.85
35960;BMP280;22043;50.970;7.192;2023-04-03T13:27:57;100385.53;;;7.82
35960;BMP280;22043;50.970;7.192;2023-04-03T13:30:28;100387.16;;;7.86
35960;BMP280;22043;50.970;7.192;2023-04-03T13:32:56;100387.16;;;7.86
35960;BMP280;22043;50.970;7.192;2023-04-03T13:35:40;100385.31;;;7.91
35960;BMP280;22043;50.970;7.192;2023-04-03T13:40:54;100384.06;;;8.07
35960;BMP280;22043;50.970;7.192;2023-04-03T13:43:23;100386.44;;;8.09
35960;BMP280;22043;50.970;7.192;2023-04-03T13:45:58;100373.19;;;8.07
35960;BMP280;22043;50.970;7.192;2023-04-03T13:48:24;100371.22;;;8.04
35960;BMP280;22043;50.970;7.192;2023-04-03T13:51:04;100376.69;;;8.08
35960;BMP280;22043;50.970;7.192;2023-04-03T13:53:41;100367.84;;;8.11
35960;BMP280;22043;50.970;7.192;2023-04-03T13:56:13;100367.44;;;8.09
35960;BMP280;22043;50.970;7.192;2023-04-03T13:58:56;100350.00;;;8.10
35960;BMP280;22043;50.970;7.192;2023-04-03T14:01:24;100361.72;;;8.14
35960;BMP280;22043;50.970;7.192;2023-04-03T14:03:56;100360.97;;;8.17
35960;BMP280;22043;50.970;7.192;2023-04-03T14:06:23;100351.66;;;8.18
35960;BMP280;22043;50.970;7.192;2023-04-03T14:08:49;100348.94;;;8.18
35960;BMP280;22043;50.970;7.192;2023-04-03T14:11:22;100358.00;;;8.26
35960;BMP280;22043;50.970;7.192;2023-04-03T14:13:49;100350.16;;;8.21
35960;BMP280;22043;50.970;7.192;2023-04-03T14:16:20;100351.75;;;8.22
35960;BMP280;22043;50.970;7.192;2023-04-03T14:18:47;100344.66;;;8.17
35960;BMP280;22043;50.970;7.192;2023-04-03T14:21:14;100338.09;;;8.18
35960;BMP280;22043;50.970;7.192;2023-04-03T14:23:40;100340.38;;;8.16
35960;BMP280;22043;50.970;7.192;2023-04-03T14:26:12;100335.78;;;8.20
35960;BMP280;22043;50.970;7.192;2023-04-03T14:28:38;100341.50;;;8.15
35960;BMP280;22043;50.970;7.192;2023-04-03T14:31:05;100341.69;;;8.26
35960;BMP280;22043;50.970;7.192;2023-04-03T14:33:32;100335.38;;;8.18
35960;BMP280;22043;50.970;7.192;2023-04-03T14:36:00;100325.66;;;8.17
35960;BMP280;22043;50.970;7.192;2023-04-03T14:38:29;100331.50;;;8.19
35960;BMP280;22043;50.970;7.192;2023-04-03T14:40:56;100329.56;;;8.20
35960;BMP280;22043;50.970;7.192;2023-04-03T14:43:23;100326.78;;;8.12
35960;BMP280;22043;50.970;7.192;2023-04-03T14:45:49;100326.69;;;8.09
35960;BMP280;22043;50.970;7.192;2023-04-03T14:48:19;100321.72;;;8.14
35960;BMP280;22043;50.970;7.192;2023-04-03T14:50:45;100333.06;;;8.20
35960;BMP280;22043;50.970;7.192;2023-04-03T14:53:11;100330.34;;;8.20
35960;BMP280;22043;50.970;7.192;2023-04-03T14:55:37;100316.28;;;8.14
35960;BMP280;22043;50.970;7.192;2023-04-03T14:58:02;100320.28;;;8.21
35960;BMP280;22043;50.970;7.192;2023-04-03T15:00:27;100316.38;;;8.18
35960;BMP280;22043;50.970;7.192;2023-04-03T15:02:53;100319.41;;;8.17
35960;BMP280;22043;50.970;7.192;2023-04-03T15:05:18;100314.78;;;8.17
35960;BMP280;22043;50.970;7.192;2023-04-03T15:07:50;100321.34;;;8.16
35960;BMP280;22043;50.970;7.192;2023-04-03T15:10:23;100313.22;;;8.16
35960;BMP280;22043;50.970;7.192;2023-04-03T15:12:50;100305.06;;;8.16
35960;BMP280;22043;50.970;7.192;2023-04-03T15:15:17;100307.38;;;8.14
35960;BMP280;22043;50.970;7.192;2023-04-03T15:17:45;100314.31;;;8.11
35960;BMP280;22043;50.970;7.192;2023-04-03T15:20:19;100308.94;;;8.15
35960;BMP280;22043;50.970;7.192;2023-04-03T15:22:45;100305.38;;;8.11
35960;BMP280;22043;50.970;7.192;2023-04-03T15:25:11;100313.22;;;8.16
35960;BMP280;22043;50.970;7.192;2023-04-03T15:27:37;100307.78;;;8.16
35960;BMP280;22043;50.970;7.192;2023-04-03T15:30:04;100309.72;;;8.16